Time;durP1;ratioP1;P1;durP2;ratioP2;P2;SDS_P1;SDS_P2;PMS_P1;PMS_P2;Temp;Humidity;BMP_temperature;BMP_pressure;BME280_temperature;BME280_humidity;BME280_pressure;Samples;Min_cycle;Max_cycle;Signal;HPM_P1;HPM_P2
2023/01/06 00:01:49;;;;;;;16.35;7.40;;;8.60;99.90;;;;;;7404079;19;20366;-76
2023/01/06 00:04:18;;;;;;;14.70;7.35;;;8.50;99.90;;;;;;7405438;19;19922;-74
2023/01/06 00:06:47;;;;;;;16.55;6.78;;;8.50;99.90;;;;;;7399308;19;19933;-74
2023/01/06 00:09:16;;;;;;;17.35;6.97;;;8.60;99.90;;;;;;7404400;19;19926;-75
2023/01/06 00:11:45;;;;;;;16.15;7.43;;;8.50;99.90;;;;;;7405414;19;20582;-76
2023/01/06 00:14:13;;;;;;;12.80;5.78;;;8.60;99.90;;;;;;7404024;19;19974;-75
2023/01/06 00:16:42;;;;;;;14.65;5.53;;;8.70;99.90;;;;;;7403017;19;20010;-75
2023/01/06 00:19:15;;;;;;;11.32;6.07;;;8.60;99.90;;;;;;7402826;19;19932;-75
2023/01/06 00:21:44;;;;;;;15.90;5.82;;;8.60;99.90;;;;;;7403357;19;19942;-75
2023/01/06 00:24:14;;;;;;;14.93;7.10;;;8.60;99.90;;;;;;7396534;19;19918;-76
2023/01/06 00:26:43;;;;;;;13.85;6.78;;;8.50;99.90;;;;;;7402778;19;20277;-77
2023/01/06 00:29:12;;;;;;;14.77;6.95;;;8.70;99.90;;;;;;7401550;19;19922;-77
2023/01/06 00:31:41;;;;;;;17.20;7.63;;;8.40;99.90;;;;;;7400794;19;19926;-76
2023/01/06 00:34:15;;;;;;;13.82;7.25;;;8.60;99.90;;;;;;7401253;19;20357;-76
2023/01/06 00:36:43;;;;;;;;;;;8.60;99.90;;;;;;7401227;19;19922;-77
2023/01/06 00:39:14;;;;;;;15.50;7.22;;;8.50;99.90;;;;;;7400852;19;19918;-76
2023/01/06 00:44:26;;;;;;;20.67;7.88;;;8.50;99.90;;;;;;7252903;19;2824606;-77
2023/01/06 00:46:55;;;;;;;21.45;8.77;;;8.50;99.90;;;;;;7404702;19;19922;-77
2023/01/06 00:49:27;;;;;;;21.30;7.95;;;8.50;99.90;;;;;;7403480;19;19986;-77
2023/01/06 00:51:56;;;;;;;;;;;8.70;99.90;;;;;;7407819;19;19959;-77
2023/01/06 00:54:25;;;;;;;;;;;8.60;99.90;;;;;;7405887;19;19978;-77
2023/01/06 00:56:55;;;;;;;16.65;8.32;;;8.60;99.90;;;;;;7394406;19;20360;-77
2023/01/06 00:59:27;;;;;;;24.02;9.35;;;8.40;99.90;;;;;;7397114;19;19922;-75
2023/01/06 01:01:58;;;;;;;21.65;9.25;;;8.60;99.90;;;;;;7402252;19;19923;-75
2023/01/06 01:04:30;;;;;;;29.00;9.32;;;8.60;99.90;;;;;;7403263;19;19918;-75
2023/01/06 01:07:00;;;;;;;24.83;9.43;;;8.60;99.90;;;;;;7401143;19;19919;-76
2023/01/06 01:09:31;;;;;;;24.70;9.02;;;8.60;99.90;;;;;;7404090;19;19918;-75
2023/01/06 01:12:13;;;;;;;26.85;9.30;;;8.60;99.90;;;;;;7398777;19;20280;-75
2023/01/06 01:14:46;;;;;;;28.27;10.60;;;8.60;99.90;;;;;;7394886;19;20314;-74
2023/01/06 01:17:18;;;;;;;31.70;10.45;;;8.70;99.90;;;;;;7402138;19;19986;-75
2023/01/06 01:19:51;;;;;;;25.98;10.13;;;8.60;99.90;;;;;;7404381;19;20305;-74
2023/01/06 01:22:20;;;;;;;22.20;9.32;;;8.60;99.90;;;;;;7403170;19;20290;-74
2023/01/06 01:24:49;;;;;;;27.83;9.38;;;8.60;99.90;;;;;;7402687;19;19918;-75
2023/01/06 01:27:18;;;;;;;25.00;9.45;;;8.70;99.90;;;;;;7402503;19;19925;-74
2023/01/06 01:29:47;;;;;;;24.10;9.68;;;8.70;99.90;;;;;;7402172;19;19962;-75
2023/01/06 01:32:16;;;;;;;23.10;8.45;;;8.70;99.90;;;;;;7393285;19;19923;-74
2023/01/06 01:34:45;;;;;;;21.70;10.32;;;8.70;99.90;;;;;;7401640;19;22876;-75
2023/01/06 01:37:19;;;;;;;22.58;8.70;;;8.70;99.90;;;;;;7401489;19;19978;-75
2023/01/06 01:39:48;;;;;;;19.08;9.35;;;8.80;99.90;;;;;;7403700;19;19914;-74
2023/01/06 01:42:19;;;;;;;24.02;9.40;;;8.60;99.90;;;;;;7403133;19;19937;-74
2023/01/06 01:45:01;;;;;;;21.50;8.90;;;8.80;99.90;;;;;;7404216;19;19918;-74
2023/01/06 01:47:39;;;;;;;23.60;8.73;;;8.70;99.90;;;;;;7396718;19;19915;-76
2023/01/06 01:50:13;;;;;;;;;;;8.80;99.90;;;;;;7405372;19;19922;-74
2023/01/06 01:52:48;;;;;;;16.30;7.63;;;8.90;99.90;;;;;;7404119;19;19923;-74
2023/01/06 01:55:18;;;;;;;18.10;7.05;;;8.80;99.90;;;;;;7401759;19;19923;-74
2023/01/06 01:57:51;;;;;;;14.35;5.97;;;8.80;99.90;;;;;;7401574;19;20340;-76
2023/01/06 02:00:21;;;;;;;10.27;5.97;;;8.80;99.90;;;;;;7400664;19;19926;-76
2023/01/06 02:02:50;;;;;;;10.35;5.53;;;8.80;99.90;;;;;;7402039;19;20356;-74
2023/01/06 02:05:24;;;;;;;11.98;4.95;;;9.00;99.90;;;;;;7393329;19;19915;-74
2023/01/06 02:07:57;;;;;;;8.75;4.45;;;8.70;99.90;;;;;;7401196;19;19919;-74
2023/01/06 02:10:27;;;;;;;8.77;3.60;;;8.90;99.90;;;;;;7401196;19;19919;-76
2023/01/06 02:12:59;;;;;;;10.68;4.05;;;8.80;99.90;;;;;;7401470;19;19914;-75
2023/01/06 02:15:32;;;;;;;11.40;4.30;;;8.90;99.90;;;;;;7402107;19;20524;-74
2023/01/06 02:18:37;;;;;;;9.65;4.70;;;8.80;99.90;;;;;;7407743;19;20278;-75
2023/01/06 02:21:31;;;;;;;8.18;3.88;;;8.80;99.90;;;;;;7403093;19;19918;-76
2023/01/06 02:24:32;;;;;;;8.50;4.45;;;9.00;99.90;;;;;;7408200;19;20283;-75
2023/01/06 02:27:39;;;;;;;8.55;4.40;;;8.90;99.90;;;;;;7409257;19;19947;-76
2023/01/06 02:30:32;;;;;;;11.63;4.30;;;9.10;99.90;;;;;;7406803;19;20059;-76
2023/01/06 02:33:12;;;;;;;12.55;4.20;;;9.00;99.90;;;;;;7401167;19;20334;-76
2023/01/06 02:35:59;;;;;;;8.27;4.50;;;8.90;99.90;;;;;;7401029;19;19911;-75
2023/01/06 02:38:37;;;;;;;8.73;3.63;;;8.90;99.90;;;;;;7402308;19;19939;-75
2023/01/06 02:41:15;;;;;;;7.72;4.07;;;8.90;99.90;;;;;;7406357;19;19915;-75
2023/01/06 02:43:57;;;;;;;7.80;4.22;;;9.10;99.90;;;;;;7398548;19;19919;-75
2023/01/06 02:46:45;;;;;;;10.00;3.75;;;9.00;99.90;;;;;;7406113;19;19914;-74
2023/01/06 02:49:26;;;;;;;10.20;4.70;;;8.80;99.90;;;;;;7404390;19;19918;-75
2023/01/06 02:52:01;;;;;;;7.43;3.95;;;8.90;99.90;;;;;;7408931;19;19935;-74
2023/01/06 02:54:38;;;;;;;6.68;3.85;;;9.00;99.90;;;;;;7408266;19;19918;-75
2023/01/06 02:57:15;;;;;;;6.55;4.07;;;9.00;99.90;;;;;;7408458;19;20243;-76
2023/01/06 02:59:51;;;;;;;10.02;4.47;;;8.90;99.90;;;;;;7406943;19;20331;-76
2023/01/06 03:02:21;;;;;;;6.85;3.83;;;9.00;99.90;;;;;;7392564;19;19922;-76
2023/01/06 03:04:54;;;;;;;7.53;3.85;;;8.80;99.90;;;;;;7405218;19;19922;-77
2023/01/06 03:07:26;;;;;;;7.28;3.53;;;8.70;99.90;;;;;;7407501;19;19951;-76
2023/01/06 03:09:57;;;;;;;9.23;4.32;;;8.90;99.90;;;;;;7406302;19;19978;-75
2023/01/06 03:12:32;;;;;;;9.02;3.60;;;8.80;99.90;;;;;;7405193;19;20020;-77
2023/01/06 03:15:01;;;;;;;11.02;4.40;;;9.20;99.90;;;;;;7408696;19;19929;-76
2023/01/06 03:17:30;;;;;;;8.38;3.90;;;8.90;99.90;;;;;;7407003;19;19919;-76
2023/01/06 03:20:02;;;;;;;9.70;3.88;;;8.80;99.90;;;;;;7409335;19;19925;-75
2023/01/06 03:22:31;;;;;;;;;;;9.40;99.90;;;;;;7407097;19;19946;-74
2023/01/06 03:25:02;;;;;;;8.73;3.97;;;8.90;99.90;;;;;;7405755;19;20533;-75
2023/01/06 03:27:31;;;;;;;9.10;3.25;;;8.80;99.90;;;;;;7404866;19;19990;-75
2023/01/06 03:30:01;;;;;;;6.47;3.53;;;8.80;99.90;;;;;;7405450;19;19937;-76
2023/01/06 03:32:35;;;;;;;11.93;4.10;;;8.80;99.90;;;;;;7401678;19;19927;-75
2023/01/06 03:35:21;;;;;;;7.13;3.47;;;8.90;99.90;;;;;;7405587;19;19914;-75
2023/01/06 03:37:57;;;;;;;6.97;3.33;;;8.90;99.90;;;;;;7396939;19;19922;-75
2023/01/06 03:40:34;;;;;;;7.60;3.63;;;8.90;99.90;;;;;;7404379;19;19938;-74
2023/01/06 03:43:14;;;;;;;8.32;3.33;;;8.90;99.90;;;;;;7402729;19;19974;-74
2023/01/06 03:45:58;;;;;;;13.60;3.90;;;8.80;99.90;;;;;;7403406;19;19985;-75
2023/01/06 03:48:38;;;;;;;7.85;3.28;;;8.80;99.90;;;;;;7406116;19;19919;-76
2023/01/06 03:51:16;;;;;;;7.32;3.15;;;8.90;99.90;;;;;;7405996;19;19939;-76
2023/01/06 03:53:52;;;;;;;5.78;3.33;;;8.90;99.90;;;;;;7397907;19;20237;-76
2023/01/06 03:56:26;;;;;;;10.05;3.45;;;8.80;99.90;;;;;;7406822;19;20249;-76
2023/01/06 03:58:59;;;;;;;7.57;3.20;;;8.80;99.90;;;;;;7401387;19;19915;-76
2023/01/06 04:01:30;;;;;;;4.57;3.40;;;8.80;99.90;;;;;;7405811;19;19978;-76
2023/01/06 04:03:59;;;;;;;6.90;2.90;;;8.80;99.90;;;;;;7403727;19;21411;-76
2023/01/06 04:06:31;;;;;;;6.85;2.83;;;8.80;99.90;;;;;;7405421;19;20268;-76
2023/01/06 04:09:00;;;;;;;10.85;3.80;;;8.80;99.90;;;;;;7404341;19;20266;-76
2023/01/06 04:14:17;;;;;;;5.57;3.10;;;8.70;99.90;;;;;;7398878;19;19982;-76
2023/01/06 04:16:46;;;;;;;7.07;3.08;;;8.80;99.90;;;;;;7406371;19;20268;-76
2023/01/06 04:19:15;;;;;;;9.10;2.60;;;8.70;99.90;;;;;;7404194;19;19918;-76
2023/01/06 04:21:47;;;;;;;8.95;2.90;;;8.70;99.90;;;;;;7401730;19;19919;-76
2023/01/06 04:24:15;;;;;;;5.47;3.30;;;8.70;99.90;;;;;;7405954;19;19923;-76
2023/01/06 04:26:45;;;;;;;7.75;3.45;;;8.80;99.90;;;;;;7400244;19;19922;-76
2023/01/06 04:29:14;;;;;;;5.05;3.30;;;8.80;99.90;;;;;;7405519;19;20270;-76
2023/01/06 04:31:43;;;;;;;4.30;3.35;;;8.70;99.90;;;;;;7405574;19;19922;-77
2023/01/06 04:34:12;;;;;;;6.90;3.78;;;8.70;99.90;;;;;;7403221;19;19947;-76
2023/01/06 04:36:41;;;;;;;7.00;3.17;;;8.90;99.90;;;;;;7401485;19;19942;-76
2023/01/06 04:39:13;;;;;;;5.70;3.45;;;8.70;99.90;;;;;;7403352;19;19927;-76
2023/01/06 04:41:42;;;;;;;4.53;3.42;;;8.70;99.90;;;;;;7406223;19;19970;-77
2023/01/06 04:44:11;;;;;;;5.75;3.47;;;8.90;99.90;;;;;;7406175;19;19918;-77
2023/01/06 04:46:40;;;;;;;7.65;3.63;;;8.70;99.90;;;;;;7403207;19;19922;-77
2023/01/06 04:49:11;;;;;;;8.05;4.03;;;8.70;99.90;;;;;;7400043;19;20031;-76
2023/01/06 04:51:40;;;;;;;6.03;3.63;;;8.70;99.90;;;;;;7405259;19;19923;-76
2023/01/06 04:54:09;;;;;;;8.85;4.28;;;8.70;99.90;;;;;;7401681;19;19930;-76
2023/01/06 04:56:41;;;;;;;6.70;4.38;;;8.70;99.90;;;;;;7402867;19;19919;-76
2023/01/06 04:59:10;;;;;;;9.18;4.95;;;8.70;99.90;;;;;;7400166;19;20248;-75
2023/01/06 05:01:39;;;;;;;7.82;4.50;;;8.70;99.90;;;;;;7405570;19;19942;-76
2023/01/06 05:04:09;;;;;;;8.48;4.43;;;8.70;99.90;;;;;;7394821;19;19922;-76
2023/01/06 05:06:38;;;;;;;9.18;5.47;;;8.70;99.90;;;;;;7404433;19;19919;-75
2023/01/06 05:09:08;;;;;;;7.57;4.85;;;8.70;99.90;;;;;;7406041;19;20329;-75
2023/01/06 05:11:40;;;;;;;7.78;4.88;;;8.50;99.90;;;;;;7406266;19;19918;-75
2023/01/06 05:14:08;;;;;;;7.25;5.03;;;8.70;99.90;;;;;;7404720;19;19959;-75
2023/01/06 05:16:38;;;;;;;7.60;4.72;;;8.70;99.90;;;;;;7404150;19;19922;-75
2023/01/06 05:19:08;;;;;;;6.95;4.72;;;8.60;99.90;;;;;;7398934;19;19929;-75
2023/01/06 05:21:38;;;;;;;8.20;4.85;;;8.80;99.90;;;;;;7404361;19;19947;-75
2023/01/06 05:24:08;;;;;;;10.75;4.90;;;8.70;99.90;;;;;;7404206;19;19923;-76
2023/01/06 05:26:40;;;;;;;10.70;5.25;;;8.60;99.90;;;;;;7403291;19;19927;-76
2023/01/06 05:29:09;;;;;;;7.28;5.57;;;8.80;99.90;;;;;;7405194;19;20389;-76
2023/01/06 05:31:42;;;;;;;9.52;5.35;;;8.70;99.90;;;;;;7408511;19;19919;-76
2023/01/06 05:34:16;;;;;;;9.93;5.00;;;8.70;99.90;;;;;;7402925;19;19963;-76
2023/01/06 05:36:45;;;;;;;6.72;4.85;;;8.60;99.90;;;;;;7403938;19;19943;-76
2023/01/06 05:39:14;;;;;;;9.05;4.70;;;8.80;99.90;;;;;;7404831;19;19923;-76
2023/01/06 05:41:46;;;;;;;9.00;4.80;;;8.60;99.90;;;;;;7401237;19;19926;-77
2023/01/06 05:44:15;;;;;;;7.10;4.82;;;8.70;99.90;;;;;;7396897;19;20329;-77
2023/01/06 05:46:45;;;;;;;7.95;4.80;;;8.60;99.90;;;;;;7402811;19;19951;-74
2023/01/06 05:49:15;;;;;;;7.68;5.32;;;8.70;99.90;;;;;;7400788;19;20245;-74
2023/01/06 05:51:44;;;;;;;6.03;3.95;;;8.60;99.90;;;;;;7405064;19;19914;-76
2023/01/06 05:54:13;;;;;;;5.75;3.97;;;8.70;99.90;;;;;;7410177;19;19943;-75
2023/01/06 05:56:42;;;;;;;7.50;3.90;;;8.70;99.90;;;;;;7408736;19;19923;-75
2023/01/06 05:59:14;;;;;;;6.57;4.30;;;8.70;99.90;;;;;;7407875;19;19914;-75
2023/01/06 06:01:43;;;;;;;6.40;3.60;;;8.30;99.90;;;;;;7394117;19;20360;-75
2023/01/06 06:04:14;;;;;;;3.65;3.03;;;8.80;99.90;;;;;;7408947;19;19922;-75
2023/01/06 06:06:47;;;;;;;4.05;2.90;;;8.70;99.90;;;;;;7409973;19;19922;-75
2023/01/06 06:09:16;;;;;;;6.25;3.10;;;8.80;99.90;;;;;;7407832;19;19914;-75
2023/01/06 06:11:45;;;;;;;6.05;3.20;;;8.80;99.90;;;;;;7408928;19;19919;-75
2023/01/06 06:14:17;;;;;;;6.50;3.05;;;8.90;99.90;;;;;;7408733;19;19923;-75
2023/01/06 06:16:46;;;;;;;2.75;2.40;;;8.80;99.90;;;;;;7406167;19;19927;-75
2023/01/06 06:19:15;;;;;;;4.78;2.83;;;8.80;99.90;;;;;;7396997;19;19926;-75
2023/01/06 06:21:44;;;;;;;4.72;2.50;;;8.80;99.90;;;;;;7408259;19;19930;-75
2023/01/06 06:24:13;;;;;;;4.90;2.13;;;8.80;99.90;;;;;;7405942;19;19939;-75
2023/01/06 06:26:42;;;;;;;3.70;2.53;;;8.80;99.90;;;;;;7408663;19;19918;-75
2023/01/06 06:29:11;;;;;;;5.30;2.63;;;8.70;99.90;;;;;;7405747;19;19982;-75
2023/01/06 06:31:43;;;;;;;3.83;2.53;;;8.60;99.90;;;;;;7407830;19;19922;-75
2023/01/06 06:34:14;;;;;;;5.28;2.90;;;8.70;99.90;;;;;;7402961;19;19922;-75
2023/01/06 06:36:48;;;;;;;4.70;2.88;;;8.40;99.90;;;;;;7406033;19;20292;-75
2023/01/06 06:39:17;;;;;;;4.03;2.75;;;8.60;99.90;;;;;;7405632;19;20321;-75
2023/01/06 06:41:46;;;;;;;5.57;3.13;;;8.60;99.90;;;;;;7406720;19;20253;-75
2023/01/06 06:44:15;;;;;;;5.32;2.92;;;8.60;99.90;;;;;;7406061;19;20266;-75
2023/01/06 06:46:47;;;;;;;4.70;2.83;;;8.50;99.90;;;;;;7407902;19;19925;-75
2023/01/06 06:49:17;;;;;;;4.93;3.53;;;8.50;99.90;;;;;;7405194;19;19929;-75
2023/01/06 06:51:46;;;;;;;4.88;3.90;;;8.60;99.90;;;;;;7399052;19;20000;-77
2023/01/06 06:54:15;;;;;;;4.93;3.47;;;8.50;99.90;;;;;;7406626;19;19942;-75
2023/01/06 06:56:44;;;;;;;7.43;3.50;;;8.40;99.90;;;;;;7406373;19;19978;-75
2023/01/06 06:59:13;;;;;;;5.00;3.78;;;8.60;99.90;;;;;;7406230;19;19935;-76
2023/01/06 07:01:42;;;;;;;5.45;3.55;;;8.40;99.90;;;;;;7404160;19;19915;-76
2023/01/06 07:04:13;;;;;;;8.07;3.40;;;8.70;99.90;;;;;;7405203;19;19924;-76
2023/01/06 07:06:43;;;;;;;5.35;3.83;;;8.50;99.90;;;;;;7399548;19;20366;-76
2023/01/06 07:09:16;;;;;;;6.13;3.85;;;8.50;99.90;;;;;;7397411;19;20269;-77
2023/01/06 07:11:45;;;;;;;4.63;3.47;;;8.40;99.90;;;;;;7401082;19;20360;-77
2023/01/06 07:14:14;;;;;;;6.30;3.63;;;8.50;99.90;;;;;;7407685;19;19947;-77
2023/01/06 07:16:43;;;;;;;6.35;3.85;;;8.60;99.90;;;;;;7403470;19;19946;-78
2023/01/06 07:19:19;;;;;;;4.20;3.40;;;8.60;99.90;;;;;;7399116;19;19922;-78
2023/01/06 07:21:48;;;;;;;3.90;3.17;;;8.30;99.90;;;;;;7405000;19;20363;-77
2023/01/06 07:24:17;;;;;;;3.85;2.88;;;8.50;99.90;;;;;;7404810;19;19929;-77
2023/01/06 07:26:46;;;;;;;6.70;3.20;;;8.30;99.90;;;;;;7398952;19;19925;-77
2023/01/06 07:29:15;;;;;;;3.35;2.85;;;8.50;99.90;;;;;;7406406;19;19923;-77
2023/01/06 07:31:52;;;;;;;5.28;3.55;;;8.50;99.90;;;;;;7409401;19;20586;-77
2023/01/06 07:34:24;;;;;;;3.33;2.72;;;8.40;99.90;;;;;;7406126;19;19926;-76
2023/01/06 07:36:54;;;;;;;4.72;3.58;;;8.50;99.90;;;;;;7403777;19;19922;-77
2023/01/06 07:39:24;;;;;;;6.30;3.67;;;8.30;99.90;;;;;;7402374;19;19918;-76
2023/01/06 07:41:52;;;;;;;5.93;3.25;;;8.20;99.90;;;;;;7405184;19;19911;-76
2023/01/06 07:44:22;;;;;;;5.10;3.50;;;8.30;99.90;;;;;;7394397;19;20298;-76
2023/01/06 07:46:51;;;;;;;5.90;3.53;;;8.30;99.90;;;;;;7398499;19;19919;-77
2023/01/06 07:49:25;;;;;;;6.85;3.22;;;8.30;99.90;;;;;;7405269;19;19925;-76
2023/01/06 07:51:54;;;;;;;5.53;3.25;;;8.30;99.90;;;;;;7403475;19;20345;-77
2023/01/06 07:54:23;;;;;;;3.92;3.10;;;8.30;99.90;;;;;;7401138;19;19990;-77
2023/01/06 07:56:53;;;;;;;4.75;3.53;;;9.10;99.90;;;;;;7401716;19;19970;-77
2023/01/06 07:59:22;;;;;;;5.93;3.47;;;8.20;99.90;;;;;;7392185;19;19946;-77
2023/01/06 08:01:51;;;;;;;4.85;3.05;;;8.30;99.90;;;;;;7393155;19;19913;-77
2023/01/06 08:04:21;;;;;;;6.28;3.03;;;8.30;99.90;;;;;;7393878;19;20297;-78
2023/01/06 08:06:53;;;;;;;4.70;2.92;;;8.30;99.90;;;;;;7398836;19;19922;-78
2023/01/06 08:09:22;;;;;;;4.22;2.40;;;8.50;99.90;;;;;;7402283;19;19919;-78
2023/01/06 08:11:51;;;;;;;2.92;2.00;;;8.40;99.90;;;;;;7403772;19;20524;-78
2023/01/06 08:14:20;;;;;;;2.60;1.92;;;8.50;99.90;;;;;;7403846;19;19966;-78
2023/01/06 08:16:50;;;;;;;5.10;2.30;;;8.50;99.90;;;;;;7404196;19;20349;-78
2023/01/06 08:19:19;;;;;;;1.88;1.42;;;8.50;99.90;;;;;;7401648;19;19915;-78
2023/01/06 08:21:48;;;;;;;3.92;1.80;;;8.70;99.90;;;;;;7403616;19;19922;-77
2023/01/06 08:24:22;;;;;;;1.63;1.13;;;8.60;99.90;;;;;;7394308;19;19922;-77
2023/01/06 08:26:51;;;;;;;1.30;1.02;;;8.60;99.90;;;;;;7400564;19;19926;-75
2023/01/06 08:29:20;;;;;;;2.60;1.25;;;8.60;99.90;;;;;;7398436;19;20321;-76
2023/01/06 08:31:49;;;;;;;2.25;0.73;;;8.60;99.90;;;;;;7405015;19;20000;-75
2023/01/06 08:34:18;;;;;;;1.15;0.60;;;8.60;99.90;;;;;;7394540;19;20368;-75
2023/01/06 08:36:48;;;;;;;2.05;0.45;;;8.60;99.90;;;;;;7398210;19;19918;-76
2023/01/06 08:39:19;;;;;;;0.22;0.22;;;8.40;99.90;;;;;;7400993;19;20382;-75
2023/01/06 08:41:50;;;;;;;0.98;0.60;;;8.50;99.90;;;;;;7388968;19;19935;-78
2023/01/06 08:44:20;;;;;;;0.82;0.30;;;8.40;99.90;;;;;;7397201;19;20473;-76
2023/01/06 08:46:49;;;;;;;0.38;0.30;;;8.60;99.90;;;;;;7404170;19;19950;-75
2023/01/06 08:49:18;;;;;;;0.45;0.30;;;8.30;99.90;;;;;;7399495;19;20270;-75
2023/01/06 08:51:48;;;;;;;2.35;0.40;;;8.20;99.90;;;;;;7403514;19;19925;-75
2023/01/06 08:54:19;;;;;;;1.05;0.20;;;8.30;99.90;;;;;;7401111;19;19918;-75
2023/01/06 08:56:50;;;;;;;1.40;0.25;;;8.40;99.90;;;;;;7400574;19;19919;-75
2023/01/06 08:59:19;;;;;;;4.00;0.50;;;8.20;99.90;;;;;;7392912;19;19963;-76
2023/01/06 09:01:48;;;;;;;0.60;0.20;;;8.20;99.90;;;;;;7397572;19;19926;-77
2023/01/06 09:04:19;;;;;;;5.18;1.48;;;8.10;99.90;;;;;;7399439;19;19918;-77
2023/01/06 09:06:48;;;;;;;2.60;0.47;;;8.40;99.90;;;;;;7385792;19;19947;-76
2023/01/06 09:09:20;;;;;;;0.40;0.40;;;8.20;99.90;;;;;;7396412;19;19994;-76
2023/01/06 09:11:50;;;;;;;2.72;0.30;;;8.00;99.90;;;;;;7404315;19;19947;-76
2023/01/06 09:14:22;;;;;;;1.45;0.30;;;8.20;99.90;;;;;;7400046;19;19919;-76
2023/01/06 09:16:52;;;;;;;0.20;0.10;;;8.20;99.90;;;;;;7393594;19;19910;-76
2023/01/06 09:19:21;;;;;;;0.95;0.20;;;8.20;99.90;;;;;;7403017;19;19982;-76
2023/01/06 09:21:50;;;;;;;2.83;1.00;;;8.10;99.90;;;;;;7401711;19;19919;-76
2023/01/06 09:24:22;;;;;;;1.42;0.35;;;8.20;99.90;;;;;;7404143;19;19919;-76
2023/01/06 09:26:50;;;;;;;2.80;0.52;;;8.00;99.90;;;;;;7403024;19;20292;-76
2023/01/06 09:29:20;;;;;;;0.63;0.20;;;8.00;99.90;;;;;;7408629;19;20242;-76
2023/01/06 09:31:49;;;;;;;3.97;0.52;;;8.00;99.90;;;;;;7401041;19;19922;-76
2023/01/06 09:34:18;;;;;;;1.00;0.47;;;8.00;99.90;;;;;;7403338;19;20238;-76
2023/01/06 09:36:47;;;;;;;3.10;1.05;;;8.00;99.90;;;;;;7408310;19;19926;-76
2023/01/06 09:39:16;;;;;;;5.05;1.23;;;8.10;99.90;;;;;;7409561;19;19919;-76
2023/01/06 09:42:15;;;;;;;7.53;2.13;;;7.90;99.90;;;;;;7408139;19;19919;-76
2023/01/06 09:44:50;;;;;;;1.85;0.82;;;8.10;99.90;;;;;;7406567;19;19921;-76
2023/01/06 09:47:27;;;;;;;3.33;0.60;;;8.10;99.90;;;;;;7409184;19;19922;-76
2023/01/06 09:50:01;;;;;;;1.20;0.50;;;8.00;99.90;;;;;;7399708;19;19974;-76
2023/01/06 09:52:37;;;;;;;2.08;0.30;;;7.90;99.90;;;;;;7405955;19;19922;-76
2023/01/06 09:55:09;;;;;;;2.78;0.40;;;7.90;99.90;;;;;;7407976;19;19919;-76
2023/01/06 09:57:45;;;;;;;4.68;0.65;;;7.90;99.90;;;;;;7406605;19;19939;-76
2023/01/06 10:00:26;;;;;;;5.15;0.47;;;7.90;99.90;;;;;;7408695;19;20263;-77
2023/01/06 10:02:58;;;;;;;3.70;1.08;;;8.00;99.90;;;;;;7405875;19;19922;-76
2023/01/06 10:05:33;;;;;;;2.60;0.43;;;8.00;99.90;;;;;;7403407;19;20303;-76
2023/01/06 10:08:10;;;;;;;1.88;0.30;;;7.90;99.90;;;;;;7405722;19;19925;-77
2023/01/06 10:10:46;;;;;;;6.05;0.85;;;7.90;99.90;;;;;;7408880;19;19918;-77
2023/01/06 10:13:34;;;;;;;5.30;0.75;;;6.70;99.90;;;;;;7410882;19;19922;-76
2023/01/06 10:16:14;;;;;;;6.70;0.70;;;7.90;99.90;;;;;;7407514;19;19978;-77
2023/01/06 10:18:54;;;;;;;3.60;0.85;;;8.00;99.90;;;;;;7408577;19;19923;-76
2023/01/06 10:21:32;;;;;;;6.20;0.60;;;8.00;99.90;;;;;;7407170;19;19983;-76
2023/01/06 10:24:23;;;;;;;5.50;0.88;;;8.00;99.90;;;;;;7402796;19;19926;-78
2023/01/06 10:26:58;;;;;;;4.03;1.13;;;8.00;99.90;;;;;;7407100;19;20361;-77
2023/01/06 10:29:34;;;;;;;4.03;0.75;;;8.00;99.90;;;;;;7409389;19;19918;-77
2023/01/06 10:32:08;;;;;;;3.10;0.68;;;8.00;99.90;;;;;;7409489;19;19918;-78
2023/01/06 10:34:38;;;;;;;6.05;1.08;;;8.00;99.90;;;;;;7410202;19;19926;-78
2023/01/06 10:37:19;;;;;;;3.75;1.02;;;8.00;99.90;;;;;;7406992;19;19970;-78
2023/01/06 10:39:51;;;;;;;6.85;0.73;;;8.10;99.90;;;;;;7408246;19;20397;-78
2023/01/06 10:45:16;;;;;;;5.55;1.08;;;8.00;99.90;;;;;;7407696;19;19925;-78
2023/01/06 10:47:46;;;;;;;3.80;0.73;;;8.00;99.90;;;;;;7405702;19;19922;-78
2023/01/06 10:50:18;;;;;;;2.65;0.60;;;8.20;99.90;;;;;;7409663;19;19918;-77
2023/01/06 10:52:49;;;;;;;4.43;0.70;;;8.00;99.90;;;;;;7408892;19;19921;-78
2023/01/06 10:55:37;;;;;;;2.90;0.70;;;8.20;99.90;;;;;;7412469;19;19922;-77
2023/01/06 10:58:16;;;;;;;4.45;0.75;;;9.60;99.90;;;;;;7409408;19;19923;-77
2023/01/06 11:01:00;;;;;;;3.15;1.13;;;8.30;99.90;;;;;;7407192;19;19978;-78
2023/01/06 11:03:31;;;;;;;3.42;0.60;;;8.30;99.90;;;;;;7400557;19;19923;-77
2023/01/06 11:06:09;;;;;;;3.65;0.68;;;8.30;99.90;;;;;;7408778;19;19925;-78
2023/01/06 11:08:40;;;;;;;6.07;0.70;;;8.40;99.90;;;;;;7407100;19;19942;-78
2023/01/06 11:11:15;;;;;;;5.28;1.02;;;8.40;99.90;;;;;;7406697;19;19926;-77
2023/01/06 11:13:49;;;;;;;3.58;0.50;;;8.50;99.90;;;;;;7407311;19;19986;-78
2023/01/06 11:16:27;;;;;;;5.15;0.70;;;8.50;99.90;;;;;;7404749;19;20358;-76
2023/01/06 11:18:58;;;;;;;2.33;0.43;;;8.50;99.90;;;;;;7403066;19;19923;-76
2023/01/06 11:21:40;;;;;;;4.70;1.10;;;8.50;99.90;;;;;;7406083;19;19915;-78
2023/01/06 11:24:19;;;;;;;2.75;0.30;;;8.50;99.90;;;;;;7407489;19;19986;-77
2023/01/06 11:26:54;;;;;;;5.82;0.85;;;8.60;99.90;;;;;;7408474;19;19939;-77
2023/01/06 11:29:31;;;;;;;8.85;1.20;;;8.50;99.90;;;;;;7405574;19;19915;-78
2023/01/06 11:32:06;;;;;;;3.65;0.63;;;8.50;99.90;;;;;;7408635;19;19970;-78
2023/01/06 11:34:35;;;;;;;4.97;0.80;;;8.50;99.90;;;;;;7404973;19;19914;-76
2023/01/06 11:37:09;;;;;;;11.38;2.08;;;8.60;99.90;;;;;;7407739;19;19918;-79
2023/01/06 11:39:39;;;;;;;4.65;0.80;;;8.70;99.90;;;;;;7411148;19;19922;-78
2023/01/06 11:42:16;;;;;;;4.40;1.95;;;8.60;99.90;;;;;;7401361;19;19930;-76
2023/01/06 11:44:45;;;;;;;3.58;1.40;;;8.60;99.90;;;;;;7403382;19;20311;-76
2023/01/06 11:47:21;;;;;;;1.85;0.73;;;8.60;99.90;;;;;;7405053;19;19972;-77
2023/01/06 11:49:52;;;;;;;4.57;0.90;;;8.40;99.90;;;;;;7404835;19;19915;-76
2023/01/06 11:52:25;;;;;;;5.88;1.35;;;8.60;99.90;;;;;;7404448;19;19933;-77
2023/01/06 11:55:02;;;;;;;3.10;0.60;;;8.70;99.90;;;;;;7405813;19;19930;-76
2023/01/06 11:57:43;;;;;;;5.57;1.45;;;8.70;99.90;;;;;;7404495;19;19974;-77
2023/01/06 12:00:38;;;;;;;5.25;1.88;;;8.80;99.90;;;;;;7398589;19;20325;-77
2023/01/06 12:03:18;;;;;;;1.92;0.73;;;8.90;99.90;;;;;;7405918;19;20031;-77
2023/01/06 12:05:53;;;;;;;4.75;0.82;;;8.90;99.90;;;;;;7403477;19;19923;-76
2023/01/06 12:08:25;;;;;;;6.45;1.08;;;8.80;99.90;;;;;;7404619;19;19923;-76
2023/01/06 12:11:00;;;;;;;5.38;0.57;;;8.80;99.90;;;;;;7404960;19;19919;-76
2023/01/06 12:13:29;;;;;;;5.80;1.02;;;8.80;99.90;;;;;;7406971;19;19926;-76
2023/01/06 12:16:02;;;;;;;3.10;0.68;;;8.70;99.90;;;;;;7399091;19;20282;-77
2023/01/06 12:18:38;;;;;;;7.13;0.95;;;8.90;99.90;;;;;;7404114;19;19918;-76
2023/01/06 12:21:09;;;;;;;8.38;0.88;;;8.90;99.90;;;;;;7404491;19;19918;-76
2023/01/06 12:23:41;;;;;;;5.80;0.75;;;8.90;99.90;;;;;;7405038;19;19978;-76
2023/01/06 12:26:34;;;;;;;3.22;0.80;;;9.20;99.90;;;;;;7403736;19;19955;-76
2023/01/06 12:29:06;;;;;;;7.63;1.17;;;9.00;99.90;;;;;;7400672;19;19982;-75
2023/01/06 12:31:46;;;;;;;3.63;0.55;;;8.90;99.90;;;;;;7404911;19;19922;-77
2023/01/06 12:34:24;;;;;;;7.03;1.20;;;8.90;99.90;;;;;;7395077;19;19919;-76
2023/01/06 12:37:00;;;;;;;4.63;0.65;;;8.80;99.90;;;;;;7403548;19;20233;-76
2023/01/06 12:39:57;;;;;;;4.57;0.77;;;8.70;99.90;;;;;;7402460;19;19914;-77
2023/01/06 12:42:32;;;;;;;10.52;1.02;;;8.80;99.90;;;;;;7399644;19;19925;-76
2023/01/06 12:45:05;;;;;;;6.88;0.98;;;8.70;99.90;;;;;;7401830;19;20297;-76
2023/01/06 12:47:39;;;;;;;5.63;0.63;;;8.70;99.90;;;;;;7404441;19;19947;-76
2023/01/06 12:50:19;;;;;;;4.45;1.00;;;8.90;99.90;;;;;;7394857;19;19922;-76
2023/01/06 12:52:53;;;;;;;7.30;0.77;;;8.70;99.90;;;;;;7401851;19;19974;-76
2023/01/06 12:55:41;;;;;;;4.15;0.80;;;8.90;99.90;;;;;;7406194;19;19977;-76
2023/01/06 12:58:18;;;;;;;5.47;0.88;;;8.80;99.90;;;;;;7400806;19;19954;-76
2023/01/06 13:01:07;;;;;;;8.20;0.90;;;8.70;99.90;;;;;;7403660;19;19978;-76
2023/01/06 13:04:05;;;;;;;2.60;1.08;;;8.80;99.90;;;;;;7404617;19;20249;-76
2023/01/06 13:06:47;;;;;;;5.57;0.93;;;8.60;99.90;;;;;;7398940;19;19923;-77
2023/01/06 13:09:32;;;;;;;4.88;0.65;;;8.80;99.90;;;;;;7401586;19;19946;-78
2023/01/06 13:12:23;;;;;;;5.90;0.90;;;8.70;99.90;;;;;;7402516;19;20344;-78
2023/01/06 13:15:00;;;;;;;8.45;1.98;;;8.60;99.90;;;;;;7404748;19;20266;-77
2023/01/06 13:17:38;;;;;;;7.78;0.82;;;8.60;99.90;;;;;;7404283;19;19974;-77
2023/01/06 13:20:20;;;;;;;11.45;1.60;;;10.10;99.90;;;;;;7403355;19;19974;-77
2023/01/06 13:23:00;;;;;;;7.55;1.50;;;8.70;99.90;;;;;;7404115;19;19914;-77
2023/01/06 13:25:57;;;;;;;6.20;0.77;;;8.80;99.90;;;;;;7404227;19;20276;-77
2023/01/06 13:28:38;;;;;;;9.00;1.02;;;8.60;99.90;;;;;;7399047;19;19919;-77
2023/01/06 13:31:39;;;;;;;5.18;1.33;;;8.60;99.90;;;;;;7403469;19;19918;-76
2023/01/06 13:34:48;;;;;;;4.20;1.00;;;8.60;99.90;;;;;;7402127;19;20036;-76
2023/01/06 13:37:33;;;;;;;5.90;1.77;;;8.70;99.90;;;;;;7397475;19;19938;-77